createdAt,value
2023-03-02T00:02:15.304Z,0.50
2023-03-02T00:04:57.696Z,0.54
2023-03-02T00:07:34.431Z,0.54
2023-03-02T00:10:05.777Z,0.56
2023-03-02T00:12:46.471Z,0.54
2023-03-02T00:15:13.141Z,0.52
2023-03-02T00:17:42.106Z,0.47
2023-03-02T00:20:10.409Z,0.42
2023-03-02T00:22:46.026Z,0.39
2023-03-02T00:25:19.638Z,0.39
2023-03-02T00:27:46.393Z,0.40
2023-03-02T00:30:15.561Z,0.43
2023-03-02T00:32:45.864Z,0.42
2023-03-02T00:35:12.961Z,0.40
2023-03-02T00:37:46.572Z,0.33
2023-03-02T00:40:16.240Z,0.28
2023-03-02T00:42:45.610Z,0.23
2023-03-02T00:45:12.400Z,0.25
2023-03-02T00:47:48.284Z,0.25
2023-03-02T00:50:15.098Z,0.28
2023-03-02T00:52:52.084Z,0.25
2023-03-02T00:55:19.441Z,0.26
2023-03-02T00:57:54.822Z,0.23
2023-03-02T01:00:28.475Z,0.24
2023-03-02T01:02:56.170Z,0.23
2023-03-02T01:05:23.051Z,0.20
2023-03-02T01:07:49.905Z,0.20
2023-03-02T01:10:17.046Z,0.24
2023-03-02T01:12:46.604Z,0.21
2023-03-02T01:15:13.841Z,0.18
2023-03-02T01:17:46.754Z,0.15
2023-03-02T01:20:14.604Z,0.06
2023-03-02T01:22:45.349Z,0.03
2023-03-02T01:25:14.347Z,0.03
2023-03-02T01:27:44.145Z,-0.03
2023-03-02T01:30:12.692Z,-0.01
2023-03-02T01:32:57.733Z,-0.02
2023-03-02T01:35:24.470Z,0.00
2023-03-02T01:37:51.126Z,0.02
2023-03-02T01:40:18.176Z,0.04
2023-03-02T01:43:02.337Z,0.05
2023-03-02T01:45:48.721Z,0.07
2023-03-02T01:48:25.906Z,0.06
2023-03-02T01:50:54.297Z,0.07
2023-03-02T01:53:36.668Z,0.05
2023-03-02T01:56:05.968Z,0.06
2023-03-02T01:58:37.694Z,0.06
2023-03-02T02:01:06.527Z,0.05
2023-03-02T02:03:34.212Z,0.03
2023-03-02T02:07:05.740Z,0.02
2023-03-02T02:09:52.382Z,-0.04
2023-03-02T02:12:26.767Z,-0.08
2023-03-02T02:14:55.047Z,-0.08
2023-03-02T02:17:22.306Z,-0.07
2023-03-02T02:20:15.543Z,-0.09
2023-03-02T02:23:13.186Z,-0.06
2023-03-02T02:25:55.275Z,-0.05
2023-03-02T02:29:12.185Z,-0.04
2023-03-02T02:32:06.718Z,-0.02
2023-03-02T02:35:01.479Z,-0.01
2023-03-02T02:37:41.890Z,-0.09
2023-03-02T02:40:38.454Z,-0.10
2023-03-02T02:43:13.895Z,-0.12
2023-03-02T02:45:44.761Z,-0.12
2023-03-02T02:48:23.204Z,-0.09
2023-03-02T02:51:00.040Z,-0.10
2023-03-02T02:53:34.209Z,-0.08
2023-03-02T02:56:07.690Z,-0.08
2023-03-02T02:58:47.559Z,-0.08
2023-03-02T03:01:19.132Z,-0.10
2023-03-02T03:04:07.228Z,-0.04
2023-03-02T03:06:45.171Z,-0.05
2023-03-02T03:09:12.236Z,-0.05
2023-03-02T03:12:08.507Z,-0.06
2023-03-02T03:14:44.564Z,-0.04
2023-03-02T03:17:14.478Z,-0.04
2023-03-02T03:19:48.336Z,-0.03
2023-03-02T03:22:18.207Z,-0.02
2023-03-02T03:24:49.270Z,-0.02
2023-03-02T03:27:17.053Z,-0.02
2023-03-02T03:29:50.154Z,0.02
2023-03-02T03:32:21.019Z,0.03
2023-03-02T03:34:50.551Z,-0.02
2023-03-02T03:37:21.053Z,-0.01
2023-03-02T03:39:52.902Z,-0.02
2023-03-02T03:42:19.962Z,-0.01
2023-03-02T03:44:47.604Z,0.02
2023-03-02T03:47:14.383Z,0.02
2023-03-02T03:49:44.220Z,-0.01
2023-03-02T03:52:14.686Z,-0.04
2023-03-02T03:54:43.887Z,-0.07
2023-03-02T03:57:12.048Z,-0.08
2023-03-02T03:59:38.765Z,-0.04
2023-03-02T04:02:05.503Z,-0.05
2023-03-02T04:04:35.327Z,-0.03
2023-03-02T04:07:02.510Z,-0.04
2023-03-02T04:09:32.630Z,-0.01
2023-03-02T04:11:59.406Z,0.00
2023-03-02T04:14:26.340Z,0.03
2023-03-02T04:16:56.842Z,0.05
2023-03-02T04:19:25.231Z,0.07
2023-03-02T04:21:58.350Z,0.09
2023-03-02T04:24:25.304Z,0.12
2023-03-02T04:26:54.666Z,0.15
2023-03-02T04:29:21.523Z,0.15
2023-03-02T04:31:50.970Z,0.18
2023-03-02T04:34:17.946Z,0.18
2023-03-02T04:36:45.221Z,0.17
2023-03-02T04:39:17.247Z,0.20
2023-03-02T04:41:47.339Z,0.23
2023-03-02T04:44:16.830Z,0.23
2023-03-02T04:46:45.225Z,0.24
2023-03-02T04:49:14.652Z,0.22
2023-03-02T04:51:50.797Z,0.23
2023-03-02T04:54:25.370Z,0.26
2023-03-02T04:56:54.353Z,0.25
2023-03-02T04:59:27.187Z,0.27
2023-03-02T05:01:58.646Z,0.27
2023-03-02T05:04:27.904Z,0.30
2023-03-02T05:06:55.240Z,0.27
2023-03-02T05:09:28.781Z,0.31
2023-03-02T05:11:57.553Z,0.30
2023-03-02T05:14:26.522Z,0.29
2023-03-02T05:16:53.747Z,0.28
2023-03-02T05:19:26.886Z,0.25
2023-03-02T05:21:53.960Z,0.24
2023-03-02T05:24:20.623Z,0.27
2023-03-02T05:26:47.296Z,0.27
2023-03-02T05:29:14.158Z,0.25
2023-03-02T05:31:47.109Z,0.27
2023-03-02T05:34:17.305Z,0.28
2023-03-02T05:36:45.868Z,0.29
2023-03-02T05:39:16.069Z,0.28
2023-03-02T05:41:45.768Z,0.29
2023-03-02T05:44:12.594Z,0.27
2023-03-02T05:46:43.260Z,0.23
2023-03-02T05:49:10.629Z,0.26
2023-03-02T05:51:37.261Z,0.27
2023-03-02T05:54:04.207Z,0.22
2023-03-02T05:56:31.386Z,0.25
2023-03-02T05:58:58.821Z,0.26
2023-03-02T06:01:28.593Z,0.27
2023-03-02T06:03:55.948Z,0.26
2023-03-02T06:06:22.711Z,0.28
2023-03-02T06:08:49.428Z,0.31
2023-03-02T06:11:20.393Z,0.33
2023-03-02T06:13:47.160Z,0.31
2023-03-02T06:16:13.890Z,0.32
2023-03-02T06:18:46.036Z,0.30
2023-03-02T06:21:15.675Z,0.29
2023-03-02T06:23:42.584Z,0.28
2023-03-02T07:26:05.337Z,0.88
2023-03-02T07:28:33.499Z,0.97
2023-03-02T07:31:00.196Z,1.02
2023-03-02T07:33:26.902Z,1.04
2023-03-02T07:35:55.999Z,1.14
2023-03-02T07:38:22.922Z,1.21
2023-03-02T07:40:50.184Z,1.22
2023-03-02T07:43:16.819Z,1.28
2023-03-02T07:45:43.892Z,1.29
2023-03-02T07:48:10.670Z,1.35
2023-03-02T07:50:37.435Z,1.37
2023-03-02T07:53:04.248Z,1.39
2023-03-02T07:55:30.902Z,1.36
2023-03-02T07:57:57.646Z,1.36
2023-03-02T08:00:24.852Z,1.45
2023-03-02T08:02:51.550Z,1.54
2023-03-02T08:05:18.548Z,1.55
2023-03-02T08:07:47.104Z,1.56
2023-03-02T08:10:13.890Z,1.56
2023-03-02T08:12:45.808Z,1.57
2023-03-02T08:15:12.821Z,1.60
2023-03-02T08:17:41.883Z,1.58
2023-03-02T08:20:14.666Z,1.59
2023-03-02T08:22:44.598Z,1.61
2023-03-02T08:25:13.819Z,1.64
2023-03-02T08:27:44.416Z,1.75
2023-03-02T08:30:14.761Z,1.81
2023-03-02T08:32:44.563Z,1.87
2023-03-02T08:35:17.422Z,1.86
2023-03-02T08:37:44.241Z,1.93
2023-03-02T08:40:14.627Z,1.95
2023-03-02T08:42:44.446Z,2.01
2023-03-02T08:45:13.600Z,2.14
2023-03-02T08:47:43.167Z,2.23
2023-03-02T08:50:11.570Z,2.33
2023-03-02T08:52:38.357Z,2.43
2023-03-02T08:55:06.555Z,2.58
2023-03-02T08:57:34.746Z,2.59
2023-03-02T09:00:01.580Z,2.74
2023-03-02T09:02:28.276Z,2.79
2023-03-02T09:05:00.848Z,2.71
2023-03-02T09:07:27.596Z,2.52
2023-03-02T09:09:55.730Z,2.63
2023-03-02T09:12:22.573Z,2.63
2023-03-02T09:14:49.249Z,2.71
2023-03-02T09:17:17.282Z,2.71
2023-03-02T09:19:44.743Z,2.81
2023-03-02T09:22:11.895Z,2.94
2023-03-02T09:24:38.626Z,2.98
2023-03-02T09:27:05.305Z,3.02
2023-03-02T09:29:32.055Z,3.06
2023-03-02T09:32:01.765Z,3.04
2023-03-02T09:34:29.393Z,3.08
2023-03-02T09:36:56.522Z,3.06
2023-03-02T09:39:23.297Z,3.12
2023-03-02T09:42:08.285Z,3.23
2023-03-02T09:45:03.150Z,3.37
2023-03-02T09:47:45.656Z,3.57
2023-03-02T09:50:50.291Z,3.68
2023-03-02T09:53:45.192Z,3.71
2023-03-02T09:56:19.988Z,3.71
2023-03-02T09:59:08.042Z,3.69
2023-03-02T10:01:53.409Z,3.68
2023-03-02T10:04:53.329Z,3.69
2023-03-02T10:07:32.546Z,3.78
2023-03-02T10:10:39.023Z,3.74
2023-03-02T10:14:02.898Z,3.66
2023-03-02T10:16:49.746Z,3.89
2023-03-02T10:19:41.803Z,3.63
2023-03-02T10:22:41.600Z,3.61
2023-03-02T10:25:52.924Z,3.82
2023-03-02T10:28:26.346Z,4.04
2023-03-02T10:31:30.626Z,4.20
2023-03-02T10:34:01.446Z,4.18
2023-03-02T10:36:38.363Z,4.24
2023-03-02T10:39:15.345Z,4.14
2023-03-02T10:42:03.959Z,4.09
2023-03-02T10:44:42.189Z,4.09
2023-03-02T10:47:38.018Z,4.01
2023-03-02T10:50:21.132Z,3.88
2023-03-02T10:52:59.964Z,3.83
2023-03-02T10:55:28.941Z,3.78
2023-03-02T10:58:25.745Z,3.68
2023-03-02T11:01:16.948Z,3.89
2023-03-02T11:04:03.912Z,3.90
2023-03-02T11:06:31.035Z,3.84
2023-03-02T11:09:02.097Z,3.93
2023-03-02T11:11:30.209Z,4.04
2023-03-02T11:14:17.291Z,4.13
2023-03-02T11:16:44.104Z,4.02
2023-03-02T11:19:33.174Z,4.02
2023-03-02T11:22:25.009Z,4.03
2023-03-02T11:24:58.362Z,4.00
2023-03-02T11:27:35.353Z,3.83
2023-03-02T11:30:18.985Z,3.84
2023-03-02T11:33:27.695Z,3.99
2023-03-02T11:36:20.700Z,4.14
2023-03-02T11:38:55.058Z,3.92
2023-03-02T11:41:32.754Z,4.05
2023-03-02T11:44:19.489Z,4.14
2023-03-02T11:46:57.899Z,4.17
2023-03-02T11:49:57.207Z,4.36
2023-03-02T11:52:32.167Z,4.38
2023-03-02T11:55:19.992Z,4.34
2023-03-02T11:58:04.610Z,4.21
2023-03-02T12:00:37.328Z,4.40
2023-03-02T12:03:14.749Z,4.56
2023-03-02T12:06:05.208Z,4.69
2023-03-02T12:08:48.006Z,4.71
2023-03-02T12:11:17.876Z,4.78
2023-03-02T12:14:43.868Z,4.81
2023-03-02T12:17:37.001Z,5.05
2023-03-02T12:20:29.917Z,4.96
2023-03-02T12:23:24.100Z,5.09
2023-03-02T12:26:21.115Z,5.36
2023-03-02T12:29:23.862Z,5.57
2023-03-02T12:31:57.090Z,5.95
2023-03-02T12:34:35.106Z,5.89
2023-03-02T12:37:22.800Z,6.05
2023-03-02T12:40:38.360Z,6.01
2023-03-02T12:43:35.927Z,5.98
2023-03-02T12:50:22.117Z,6.16
2023-03-02T12:53:06.371Z,6.19
2023-03-02T12:55:34.615Z,6.52
2023-03-02T12:58:03.372Z,6.66
2023-03-02T13:00:35.352Z,6.78
2023-03-02T13:03:09.746Z,6.66
2023-03-02T13:05:37.408Z,7.16
2023-03-02T13:08:32.108Z,7.21
2023-03-02T13:11:05.447Z,7.22
2023-03-02T13:13:52.325Z,7.01
2023-03-02T13:16:36.502Z,6.92
2023-03-02T13:22:00.889Z,6.59
2023-03-02T13:24:45.618Z,6.50
2023-03-02T13:27:25.553Z,6.41
2023-03-02T13:29:55.672Z,6.85
2023-03-02T13:32:46.718Z,6.88
2023-03-02T13:35:30.030Z,7.02
2023-03-02T13:38:23.132Z,7.77
2023-03-02T13:40:55.221Z,9.77
2023-03-02T13:43:31.028Z,11.20
2023-03-02T13:46:11.246Z,10.24
2023-03-02T13:48:44.694Z,9.12
2023-03-02T13:51:24.035Z,8.10
2023-03-02T13:53:59.034Z,7.80
2023-03-02T13:56:38.794Z,8.28
2023-03-02T13:59:20.430Z,9.84
2023-03-02T14:01:47.743Z,10.91
2023-03-02T14:04:23.249Z,11.31
2023-03-02T14:06:55.961Z,11.56
2023-03-02T14:09:22.860Z,11.37
2023-03-02T14:11:55.866Z,10.32
2023-03-02T14:14:29.080Z,9.25
2023-03-02T14:16:56.806Z,8.72
2023-03-02T14:19:23.409Z,8.83
2023-03-02T14:21:50.155Z,9.98
2023-03-02T14:24:17.022Z,9.82
2023-03-02T14:26:48.835Z,9.70
2023-03-02T14:29:36.834Z,8.87
2023-03-02T14:32:09.653Z,8.70
2023-03-02T14:34:43.542Z,9.05
2023-03-02T14:37:27.639Z,9.27
2023-03-02T14:39:55.724Z,9.14
2023-03-02T14:42:23.613Z,9.54
2023-03-02T14:44:52.167Z,10.46
2023-03-02T14:47:19.581Z,10.76
2023-03-02T14:49:49.289Z,11.04
2023-03-02T14:52:43.146Z,11.31
2023-03-02T14:55:25.935Z,11.62
2023-03-02T14:58:17.611Z,11.98
2023-03-02T15:00:45.296Z,11.79
2023-03-02T15:03:25.578Z,11.74
2023-03-02T15:06:01.391Z,11.76
2023-03-02T15:08:30.156Z,11.78
2023-03-02T15:11:01.515Z,11.83
2023-03-02T15:13:28.285Z,11.95
2023-03-02T15:15:55.055Z,12.22
2023-03-02T15:18:21.740Z,12.44
2023-03-02T15:20:48.536Z,12.59
2023-03-02T15:23:15.285Z,12.51
2023-03-02T15:26:00.741Z,12.42
2023-03-02T15:28:27.455Z,12.53
2023-03-02T15:31:14.987Z,11.99
2023-03-02T15:33:51.222Z,11.19
2023-03-02T15:36:27.006Z,10.89
2023-03-02T15:38:53.673Z,10.80
2023-03-02T15:41:21.183Z,10.76
2023-03-02T15:43:55.112Z,10.28
2023-03-02T15:46:23.677Z,9.18
2023-03-02T15:48:53.765Z,7.81
2023-03-02T15:51:23.941Z,6.88
2023-03-02T15:53:53.621Z,6.21
2023-03-02T15:56:20.438Z,5.59
2023-03-02T15:58:51.442Z,5.02
2023-03-02T16:01:18.273Z,4.48
2023-03-02T16:03:45.703Z,4.09
2023-03-02T16:06:13.388Z,3.74
2023-03-02T16:08:49.747Z,3.42
2023-03-02T16:11:21.311Z,3.16
2023-03-02T16:13:48.205Z,2.90
2023-03-02T16:16:31.142Z,2.62
2023-03-02T16:19:04.388Z,2.41
2023-03-02T16:21:33.243Z,2.23
2023-03-02T16:24:03.920Z,2.01
2023-03-02T16:26:42.791Z,1.82
2023-03-02T16:29:13.195Z,1.54
2023-03-02T16:31:47.144Z,1.34
2023-03-02T16:34:16.571Z,1.21
2023-03-02T16:36:46.281Z,1.07
2023-03-02T16:39:14.426Z,1.01
2023-03-02T16:41:48.725Z,0.90
2023-03-02T16:44:16.092Z,0.82
2023-03-02T16:46:46.501Z,0.69
2023-03-02T16:49:16.520Z,0.42
2023-03-02T16:51:57.984Z,0.23
2023-03-02T16:54:30.325Z,0.10
2023-03-02T16:56:59.744Z,-0.12
2023-03-02T16:59:26.617Z,-0.16
2023-03-02T17:01:56.206Z,-0.11
2023-03-02T17:04:23.002Z,-0.24
2023-03-02T17:07:03.884Z,-0.47
2023-03-02T17:09:35.277Z,-0.65
2023-03-02T17:12:02.258Z,-0.82
2023-03-02T17:14:29.298Z,-0.95
2023-03-02T17:17:07.160Z,-1.10
2023-03-02T17:19:36.950Z,-1.21
2023-03-02T17:22:11.322Z,-1.30
2023-03-02T17:24:38.265Z,-1.44
2023-03-02T17:27:19.058Z,-1.50
2023-03-02T17:29:52.356Z,-1.43
2023-03-02T17:32:22.724Z,-1.50
2023-03-02T17:34:50.537Z,-1.73
2023-03-02T17:37:17.721Z,-1.79
2023-03-02T17:39:53.542Z,-1.93
2023-03-02T17:42:20.478Z,-2.06
2023-03-02T17:44:50.179Z,-2.11
2023-03-02T17:47:17.233Z,-2.11
2023-03-02T17:49:45.210Z,-2.05
2023-03-02T17:52:20.953Z,-2.02
2023-03-02T17:54:53.705Z,-1.99
2023-03-02T17:57:23.043Z,-2.16
2023-03-02T17:59:50.481Z,-2.30
2023-03-02T18:02:19.171Z,-2.41
2023-03-02T18:04:48.588Z,-2.44
2023-03-02T18:07:16.659Z,-2.44
2023-03-02T18:09:55.258Z,-2.51
2023-03-02T18:12:22.187Z,-2.40
2023-03-02T18:14:50.184Z,-2.37
2023-03-02T18:17:24.588Z,-2.33
2023-03-02T18:19:51.434Z,-2.26
2023-03-02T18:22:18.121Z,-2.18
2023-03-02T18:24:45.178Z,-2.19
2023-03-02T18:27:13.933Z,-2.15
2023-03-02T18:29:46.330Z,-2.09
2023-03-02T18:32:16.365Z,-2.00
2023-03-02T18:34:43.192Z,-2.04
2023-03-02T18:37:09.976Z,-2.08
2023-03-02T18:39:46.793Z,-2.00
2023-03-02T18:42:16.566Z,-2.13
2023-03-02T18:44:43.325Z,-2.30
2023-03-02T18:47:21.618Z,-2.29
2023-03-02T18:49:52.066Z,-2.26
2023-03-02T18:52:20.230Z,-2.33
